Time;durP1;ratioP1;P1;durP2;ratioP2;P2;SDS_P1;SDS_P2;PMS_P1;PMS_P2;Temp;Humidity;BMP_temperature;BMP_pressure;BME280_temperature;BME280_humidity;BME280_pressure;Samples;Min_cycle;Max_cycle;Signal;HPM_P1;HPM_P2
2021/04/27 00:00:10;;;;;;;4.05;2.03;;;16.80;54.20;;;;;;5009239;28;20018;-64
2021/04/27 00:02:35;;;;;;;3.35;1.75;;;16.80;54.10;;;;;;4991868;28;20026;-65
2021/04/27 00:05:02;;;;;;;4.18;2.00;;;16.70;54.10;;;;;;5010878;28;20095;-65
2021/04/27 00:07:28;;;;;;;4.57;2.15;;;16.80;54.20;;;;;;5003849;28;20023;-65
2021/04/27 00:09:53;;;;;;;4.25;1.98;;;16.80;54.20;;;;;;4972942;28;20030;-67
2021/04/27 00:12:19;;;;;;;4.68;2.20;;;16.70;54.10;;;;;;5008311;28;20034;-64
2021/04/27 00:14:45;;;;;;;5.38;2.10;;;16.70;54.20;;;;;;4996507;28;20045;-64
2021/04/27 00:17:10;;;;;;;4.60;2.00;;;16.70;54.20;;;;;;5004780;28;20029;-65
2021/04/27 00:19:36;;;;;;;3.95;1.88;;;16.70;54.30;;;;;;5011207;28;20065;-64
2021/04/27 00:22:01;;;;;;;3.05;1.58;;;16.70;54.30;;;;;;5009727;28;20033;-64
2021/04/27 00:24:30;;;;;;;3.20;1.70;;;16.70;54.30;;;;;;4988934;28;20041;-65
2021/04/27 00:26:56;;;;;;;3.85;1.70;;;16.60;54.30;;;;;;5010104;28;20056;-64
2021/04/27 00:29:22;;;;;;;5.88;2.00;;;16.60;54.40;;;;;;4996821;28;20034;-64
2021/04/27 00:31:47;;;;;;;5.10;1.92;;;16.60;54.50;;;;;;4973682;28;20360;-64
2021/04/27 00:34:13;;;;;;;3.55;1.80;;;16.60;54.60;;;;;;4993778;28;20418;-67
2021/04/27 00:36:38;;;;;;;7.07;2.00;;;16.60;54.50;;;;;;5011031;28;20424;-64
2021/04/27 00:39:04;;;;;;;3.75;1.80;;;16.60;54.60;;;;;;4987184;28;20033;-65
2021/04/27 00:41:30;;;;;;;4.40;1.92;;;16.60;54.60;;;;;;4975446;28;20033;-65
2021/04/27 00:43:55;;;;;;;3.60;1.63;;;16.60;54.60;;;;;;4996405;28;20026;-64
2021/04/27 00:46:21;;;;;;;4.43;1.88;;;16.50;54.60;;;;;;4983797;28;20076;-65
2021/04/27 00:48:47;;;;;;;3.97;1.80;;;16.50;54.60;;;;;;4994056;28;20109;-65
2021/04/27 00:51:12;;;;;;;4.30;2.00;;;16.50;54.60;;;;;;4998186;28;20026;-66
2021/04/27 00:53:38;;;;;;;4.30;1.80;;;16.50;54.70;;;;;;5013929;28;20034;-66
2021/04/27 00:56:04;;;;;;;3.90;1.73;;;16.50;54.80;;;;;;4994570;28;20022;-64
2021/04/27 00:58:31;;;;;;;3.25;1.80;;;16.50;54.80;;;;;;4977572;28;20080;-65
2021/04/27 01:00:57;;;;;;;4.20;2.17;;;16.50;54.70;;;;;;4996522;28;20014;-66
2021/04/27 01:03:23;;;;;;;4.07;1.85;;;16.50;54.80;;;;;;5013089;28;20552;-68
2021/04/27 01:05:49;;;;;;;4.75;1.92;;;16.50;54.80;;;;;;4996017;28;20040;-64
2021/04/27 01:08:24;;;;;;;5.82;1.90;;;16.50;54.80;;;;;;4977825;28;20493;-65
2021/04/27 01:11:08;;;;;;;5.03;2.00;;;16.50;54.80;;;;;;4988279;28;20451;-65
2021/04/27 01:13:36;;;;;;;4.22;2.00;;;16.50;54.80;;;;;;4988635;28;20149;-65
2021/04/27 01:16:03;;;;;;;4.28;1.92;;;16.40;54.80;;;;;;4995416;28;20037;-66
2021/04/27 01:18:32;;;;;;;4.78;2.00;;;16.40;54.80;;;;;;4996289;28;20489;-65
2021/04/27 01:21:00;;;;;;;4.95;1.60;;;16.40;54.90;;;;;;4989888;28;20023;-64
2021/04/27 01:23:48;;;;;;;4.35;1.73;;;16.40;54.80;;;;;;4989430;28;20034;-64
2021/04/27 01:26:20;;;;;;;4.28;1.73;;;16.40;54.90;;;;;;4975219;28;20031;-64
2021/04/27 01:28:47;;;;;;;4.40;1.75;;;16.40;55.00;;;;;;4995243;28;20040;-64
2021/04/27 01:31:14;;;;;;;4.07;1.70;;;16.40;55.00;;;;;;5013969;28;20408;-67
2021/04/27 01:33:40;;;;;;;3.05;1.58;;;16.30;55.00;;;;;;5013998;28;20026;-65
2021/04/27 01:36:06;;;;;;;5.05;2.13;;;16.30;55.00;;;;;;5011622;28;20026;-65
2021/04/27 01:38:32;;;;;;;4.05;1.70;;;16.30;55.10;;;;;;4989486;28;20030;-65
2021/04/27 01:40:58;;;;;;;4.45;1.80;;;16.30;55.10;;;;;;4974840;28;20082;-65
2021/04/27 01:43:25;;;;;;;4.35;1.90;;;16.30;55.10;;;;;;4957328;28;20034;-65
2021/04/27 01:45:56;;;;;;;3.92;1.80;;;16.30;55.30;;;;;;4974065;28;20085;-64
2021/04/27 01:48:22;;;;;;;2.90;1.67;;;16.30;55.20;;;;;;5013273;28;20409;-65
2021/04/27 01:50:48;;;;;;;3.85;1.90;;;16.20;55.20;;;;;;5013585;28;20034;-64
2021/04/27 01:53:15;;;;;;;3.08;1.60;;;16.20;55.20;;;;;;4993005;28;20030;-64
2021/04/27 01:55:42;;;;;;;3.08;1.70;;;16.20;55.20;;;;;;4974052;28;20034;-67
2021/04/27 01:58:08;;;;;;;4.28;1.95;;;16.20;55.20;;;;;;5009126;28;20026;-64
2021/04/27 02:00:34;;;;;;;3.30;1.80;;;16.20;55.20;;;;;;4995894;28;20572;-65
2021/04/27 02:03:00;;;;;;;3.38;1.75;;;16.20;55.30;;;;;;5013369;28;20117;-64
2021/04/27 02:05:26;;;;;;;3.83;1.73;;;16.20;55.30;;;;;;5011728;28;20124;-65
2021/04/27 02:07:51;;;;;;;5.35;2.10;;;16.20;55.30;;;;;;4998190;28;20043;-65
2021/04/27 02:10:17;;;;;;;6.00;1.95;;;16.20;55.40;;;;;;4989907;28;20041;-64
2021/04/27 02:12:46;;;;;;;3.13;1.50;;;16.20;55.40;;;;;;5012964;28;20037;-64
2021/04/27 02:15:14;;;;;;;3.03;1.52;;;16.10;55.40;;;;;;5012770;28;20026;-65
2021/04/27 02:17:48;;;;;;;5.25;1.90;;;16.10;55.40;;;;;;4998705;28;20085;-65
2021/04/27 02:20:27;;;;;;;4.15;1.60;;;16.10;55.50;;;;;;4993335;28;20027;-64
2021/04/27 02:22:55;;;;;;;4.47;1.80;;;16.10;55.50;;;;;;4975989;28;20142;-64
2021/04/27 02:25:23;;;;;;;2.58;1.50;;;16.10;55.50;;;;;;4965073;28;20035;-66
2021/04/27 02:27:50;;;;;;;2.95;1.50;;;16.10;55.50;;;;;;4978071;28;20037;-66
2021/04/27 02:30:19;;;;;;;3.13;1.55;;;16.10;55.50;;;;;;5013008;28;20030;-65
2021/04/27 02:32:46;;;;;;;4.30;1.85;;;16.00;55.40;;;;;;5004055;28;20045;-66
2021/04/27 02:35:14;;;;;;;3.78;1.65;;;16.00;55.40;;;;;;4992815;28;20037;-65
2021/04/27 02:37:41;;;;;;;2.75;1.50;;;16.10;55.60;;;;;;4993244;28;20077;-65
2021/04/27 02:40:09;;;;;;;3.20;1.63;;;16.00;55.50;;;;;;4978008;28;20047;-64
2021/04/27 02:42:36;;;;;;;5.05;2.00;;;16.00;55.70;;;;;;4979785;28;20026;-64
2021/04/27 02:45:03;;;;;;;3.67;1.70;;;16.00;55.70;;;;;;5012425;28;20026;-62
2021/04/27 02:47:28;;;;;;;4.40;1.60;;;15.90;55.80;;;;;;4995005;28;20057;-65
2021/04/27 02:49:54;;;;;;;4.82;1.60;;;15.90;55.80;;;;;;5012616;28;20025;-65
2021/04/27 02:52:19;;;;;;;4.75;1.73;;;15.90;55.80;;;;;;5010037;28;20105;-65
2021/04/27 02:54:45;;;;;;;3.63;1.70;;;15.90;55.90;;;;;;4992428;28;20481;-64
2021/04/27 02:57:10;;;;;;;5.18;1.90;;;15.90;55.90;;;;;;4992197;28;20058;-62
2021/04/27 02:59:36;;;;;;;5.18;1.58;;;15.90;55.90;;;;;;4989162;28;20019;-64
2021/04/27 03:02:02;;;;;;;3.88;1.67;;;15.90;55.90;;;;;;4961974;28;20028;-65
2021/04/27 03:04:27;;;;;;;2.58;1.50;;;15.90;55.90;;;;;;4952486;28;20086;-65
2021/04/27 03:06:53;;;;;;;3.35;1.30;;;15.90;55.90;;;;;;4954172;28;20063;-64
2021/04/27 03:09:18;;;;;;;3.28;1.58;;;15.90;56.00;;;;;;4952828;28;20030;-65
2021/04/27 03:11:44;;;;;;;3.40;1.60;;;15.80;56.00;;;;;;4964744;28;20398;-64
2021/04/27 03:14:09;;;;;;;4.38;1.60;;;15.80;56.10;;;;;;4971665;28;20027;-65
2021/04/27 03:16:35;;;;;;;2.70;1.45;;;15.80;56.00;;;;;;4973114;28;20470;-64
2021/04/27 03:19:00;;;;;;;4.95;1.40;;;15.80;56.10;;;;;;4971571;28;20026;-65
2021/04/27 03:21:26;;;;;;;6.93;1.45;;;15.80;56.00;;;;;;4962396;28;20031;-64
2021/04/27 03:23:54;;;;;;;4.47;1.50;;;15.80;56.00;;;;;;4952427;29;20027;-64
2021/04/27 03:26:20;;;;;;;5.03;1.73;;;15.80;56.10;;;;;;4953642;29;20110;-65
2021/04/27 03:28:45;;;;;;;7.72;1.90;;;15.80;56.00;;;;;;4954490;28;20039;-65
2021/04/27 03:31:11;;;;;;;3.67;1.90;;;15.80;56.10;;;;;;4971928;28;20105;-67
2021/04/27 03:33:36;;;;;;;6.45;1.60;;;15.80;56.00;;;;;;4972978;28;20121;-65
2021/04/27 03:36:02;;;;;;;4.28;1.63;;;15.80;56.10;;;;;;4956517;28;20122;-65
2021/04/27 03:38:28;;;;;;;4.43;1.60;;;15.70;56.00;;;;;;4954095;28;20047;-64
2021/04/27 03:40:54;;;;;;;5.07;1.67;;;15.80;56.20;;;;;;4952703;28;20471;-66
2021/04/27 03:43:19;;;;;;;4.40;1.60;;;15.70;56.20;;;;;;4972831;28;20031;-64
2021/04/27 03:45:45;;;;;;;4.32;1.52;;;15.70;56.30;;;;;;4972516;28;20031;-64
2021/04/27 03:48:14;;;;;;;4.20;1.58;;;15.70;56.40;;;;;;4973804;28;20077;-65
2021/04/27 03:50:40;;;;;;;3.92;1.70;;;15.70;56.30;;;;;;4972826;28;20085;-64
2021/04/27 03:53:05;;;;;;;5.22;1.83;;;15.70;56.20;;;;;;4971534;28;20031;-64
2021/04/27 03:55:32;;;;;;;4.13;1.55;;;15.70;56.20;;;;;;4973972;28;20045;-64
2021/04/27 03:57:58;;;;;;;3.60;1.55;;;15.70;56.20;;;;;;4996526;28;20176;-64
2021/04/27 04:00:24;;;;;;;4.78;1.67;;;15.70;56.20;;;;;;5007640;28;20804;-65
2021/04/27 04:02:49;;;;;;;4.00;1.60;;;15.70;56.10;;;;;;5006858;28;20161;-65
2021/04/27 04:05:15;;;;;;;3.67;1.98;;;15.70;56.10;;;;;;5011275;28;20033;-65
2021/04/27 04:07:41;;;;;;;3.80;1.70;;;15.70;56.00;;;;;;5013268;28;20037;-63
2021/04/27 04:10:09;;;;;;;3.50;1.40;;;15.70;56.00;;;;;;5015610;28;20449;-65
2021/04/27 04:12:36;;;;;;;3.45;1.50;;;15.70;56.10;;;;;;5002999;28;20048;-64
2021/04/27 04:15:03;;;;;;;6.60;1.70;;;15.70;56.10;;;;;;4977918;28;20163;-64
2021/04/27 04:17:29;;;;;;;3.17;1.48;;;15.70;56.10;;;;;;4995814;28;20031;-64
2021/04/27 04:19:54;;;;;;;2.85;1.52;;;15.70;56.10;;;;;;4994106;28;20019;-64
2021/04/27 04:22:20;;;;;;;5.00;1.80;;;15.70;56.00;;;;;;5004000;28;20026;-64
2021/04/27 04:24:46;;;;;;;3.78;1.40;;;15.70;55.90;;;;;;4987216;28;20030;-65
2021/04/27 04:27:11;;;;;;;3.70;1.73;;;15.70;56.30;;;;;;4994431;28;20077;-64
2021/04/27 04:29:37;;;;;;;3.35;1.60;;;15.70;55.80;;;;;;4995678;28;20033;-67
2021/04/27 04:32:03;;;;;;;2.97;1.60;;;15.70;55.80;;;;;;5002034;28;20036;-63
2021/04/27 04:34:28;;;;;;;3.50;1.60;;;15.70;55.80;;;;;;5013396;28;20069;-64
2021/04/27 04:36:54;;;;;;;5.13;1.65;;;15.80;55.80;;;;;;4997597;28;20105;-65
2021/04/27 04:39:19;;;;;;;3.65;1.75;;;15.70;55.80;;;;;;4994297;28;20065;-66
2021/04/27 04:41:45;;;;;;;4.40;1.60;;;15.70;55.80;;;;;;4977947;28;20093;-64
2021/04/27 04:44:11;;;;;;;4.60;1.80;;;15.70;55.80;;;;;;4996820;28;20604;-65
2021/04/27 04:46:37;;;;;;;3.38;1.42;;;15.70;55.80;;;;;;4995952;28;20032;-65
2021/04/27 04:49:04;;;;;;;3.28;1.60;;;15.70;55.80;;;;;;4977324;28;20470;-67
2021/04/27 04:51:29;;;;;;;3.58;1.52;;;15.70;55.90;;;;;;4984306;28;20039;-68
2021/04/27 04:53:55;;;;;;;4.32;1.80;;;15.70;55.90;;;;;;4970967;28;20033;-65
2021/04/27 04:56:21;;;;;;;4.28;1.80;;;15.80;55.90;;;;;;4991690;28;20750;-65
2021/04/27 04:58:47;;;;;;;5.70;1.95;;;15.80;55.70;;;;;;4988633;28;20117;-65
2021/04/27 05:01:12;;;;;;;4.13;1.65;;;15.80;55.70;;;;;;4988659;28;20034;-65
2021/04/27 05:03:39;;;;;;;4.68;1.83;;;15.80;55.60;;;;;;4989857;28;20030;-65
2021/04/27 05:06:06;;;;;;;6.43;1.80;;;15.80;55.60;;;;;;4990429;28;20034;-64
2021/04/27 05:08:42;;;;;;;5.18;1.80;;;15.80;56.10;;;;;;4987295;28;20037;-67
2021/04/27 05:11:08;;;;;;;2.83;1.50;;;15.90;55.50;;;;;;4999664;28;20033;-67
2021/04/27 05:13:33;;;;;;;3.95;1.55;;;15.90;55.40;;;;;;4999708;28;20041;-64
2021/04/27 05:16:01;;;;;;;9.30;1.85;;;16.00;55.30;;;;;;4991793;28;20053;-66
2021/04/27 05:18:26;;;;;;;5.93;2.03;;;16.00;55.50;;;;;;4986724;28;20081;-66
2021/04/27 05:20:53;;;;;;;4.32;1.75;;;16.10;55.50;;;;;;4991285;28;20466;-64
2021/04/27 05:23:19;;;;;;;9.57;2.22;;;16.20;55.00;;;;;;4988663;28;20036;-65
2021/04/27 05:25:45;;;;;;;7.15;2.00;;;16.20;55.00;;;;;;4993708;28;20026;-65
2021/04/27 05:28:10;;;;;;;9.18;2.40;;;16.30;55.00;;;;;;4989402;28;20057;-64
2021/04/27 05:30:36;;;;;;;11.98;2.40;;;16.40;54.90;;;;;;4973728;28;20022;-67
2021/04/27 05:33:02;;;;;;;7.60;1.85;;;16.40;54.80;;;;;;4988332;28;20429;-66
2021/04/27 05:35:28;;;;;;;18.58;2.72;;;16.50;54.80;;;;;;4986287;28;20389;-67
2021/04/27 05:37:53;;;;;;;8.60;2.10;;;16.50;54.70;;;;;;4983641;28;20027;-63
2021/04/27 05:40:19;;;;;;;22.27;8.73;;;16.60;54.70;;;;;;4987068;28;20034;-65
2021/04/27 05:42:45;;;;;;;12.15;3.83;;;16.70;54.50;;;;;;4970955;28;20026;-65
2021/04/27 05:45:11;;;;;;;12.43;3.90;;;16.70;54.20;;;;;;4986955;28;20394;-68
2021/04/27 05:47:36;;;;;;;9.85;3.08;;;16.80;54.00;;;;;;4985615;28;20516;-67
2021/04/27 05:50:03;;;;;;;7.22;2.63;;;16.80;53.90;;;;;;4985948;28;20174;-65
2021/04/27 05:52:29;;;;;;;10.05;2.90;;;16.80;53.80;;;;;;4967939;28;20026;-68
2021/04/27 05:54:54;;;;;;;6.22;3.10;;;16.90;53.60;;;;;;4977938;28;20031;-66
2021/04/27 05:57:20;;;;;;;9.55;3.10;;;17.00;53.50;;;;;;4978044;28;20022;-65
2021/04/27 05:59:45;;;;;;;9.45;3.03;;;17.10;53.20;;;;;;4972007;28;20065;-66
2021/04/27 06:02:11;;;;;;;7.18;2.72;;;17.20;52.80;;;;;;4977969;28;20142;-66
2021/04/27 06:04:36;;;;;;;9.18;2.65;;;17.20;52.60;;;;;;4958889;28;20019;-65
2021/04/27 06:07:02;;;;;;;12.30;2.88;;;17.30;52.40;;;;;;4956708;28;20035;-68
2021/04/27 06:09:27;;;;;;;7.18;3.72;;;17.40;51.90;;;;;;4973837;28;20033;-68
2021/04/27 06:11:57;;;;;;;7.30;2.70;;;17.60;51.80;;;;;;4976344;28;20122;-65
2021/04/27 06:14:23;;;;;;;8.60;2.50;;;17.70;51.80;;;;;;4979029;28;20022;-66
2021/04/27 06:16:49;;;;;;;10.57;2.75;;;17.80;51.30;;;;;;4968980;28;20375;-65
2021/04/27 06:19:14;;;;;;;8.73;2.80;;;17.80;51.00;;;;;;4977421;28;20019;-66
2021/04/27 06:21:41;;;;;;;5.57;2.50;;;17.90;50.60;;;;;;4977108;28;20022;-65
2021/04/27 06:24:07;;;;;;;5.78;2.80;;;17.90;50.50;;;;;;4975682;28;20015;-66
2021/04/27 06:26:33;;;;;;;7.20;3.03;;;18.00;50.50;;;;;;4972312;28;20522;-66
2021/04/27 06:28:59;;;;;;;5.00;2.33;;;18.00;50.00;;;;;;4971286;28;20126;-68
2021/04/27 06:31:24;;;;;;;6.05;2.45;;;18.00;50.00;;;;;;4949786;28;20113;-65
2021/04/27 06:33:50;;;;;;;6.85;2.60;;;18.00;50.00;;;;;;4967712;28;20035;-65
2021/04/27 06:36:15;;;;;;;6.30;2.53;;;18.00;50.00;;;;;;4967742;28;20157;-65
2021/04/27 06:38:42;;;;;;;5.38;2.30;;;18.00;50.40;;;;;;4977342;28;20019;-65
2021/04/27 06:41:08;;;;;;;5.97;2.58;;;17.90;50.30;;;;;;4976148;28;20125;-66
2021/04/27 06:43:35;;;;;;;6.05;2.78;;;17.90;50.20;;;;;;4977917;28;20113;-67
2021/04/27 06:46:00;;;;;;;8.02;2.30;;;18.00;50.00;;;;;;4972000;28;20034;-68
2021/04/27 06:48:26;;;;;;;4.78;2.20;;;18.20;49.70;;;;;;4966895;28;20033;-65
2021/04/27 06:50:51;;;;;;;4.97;2.17;;;18.30;49.60;;;;;;4958978;28;20030;-65
2021/04/27 06:53:17;;;;;;;6.28;2.28;;;18.50;49.30;;;;;;4978261;28;20080;-65
2021/04/27 06:55:43;;;;;;;5.22;2.08;;;18.60;48.80;;;;;;4980765;28;20125;-68
2021/04/27 06:58:10;;;;;;;5.65;2.00;;;18.80;48.40;;;;;;4968938;28;20114;-68
2021/04/27 07:00:37;;;;;;;3.63;1.80;;;19.00;48.10;;;;;;4967041;28;20364;-67
2021/04/27 07:03:03;;;;;;;7.45;2.20;;;19.00;47.60;;;;;;4982108;28;20041;-67
2021/04/27 07:05:28;;;;;;;14.15;2.58;;;18.80;48.10;;;;;;4966420;28;20043;-66
2021/04/27 07:07:54;;;;;;;11.18;2.30;;;18.60;48.50;;;;;;4965344;28;20030;-65
2021/04/27 07:10:20;;;;;;;8.15;2.13;;;18.50;48.10;;;;;;4983086;28;20038;-66
2021/04/27 07:12:46;;;;;;;5.15;1.80;;;18.50;48.90;;;;;;4984329;28;20027;-66
2021/04/27 07:15:12;;;;;;;3.55;1.92;;;18.50;48.90;;;;;;5001237;28;20121;-69
2021/04/27 07:17:38;;;;;;;4.63;1.80;;;18.50;48.90;;;;;;4986259;28;20030;-66
2021/04/27 07:20:04;;;;;;;7.35;2.00;;;18.50;49.10;;;;;;4977989;28;20046;-66
2021/04/27 07:22:31;;;;;;;5.63;1.88;;;18.50;48.80;;;;;;4966545;28;20039;-65
2021/04/27 07:24:57;;;;;;;6.80;2.00;;;18.80;48.60;;;;;;4980987;28;20042;-68
2021/04/27 07:27:23;;;;;;;6.25;2.10;;;18.90;48.10;;;;;;4981286;28;20031;-66
2021/04/27 07:29:49;;;;;;;6.95;1.70;;;19.10;47.20;;;;;;4961829;28;20027;-66
2021/04/27 07:32:15;;;;;;;3.92;1.80;;;19.30;47.30;;;;;;4962740;28;20379;-67
2021/04/27 07:34:41;;;;;;;5.60;1.90;;;19.40;46.80;;;;;;4960794;28;20034;-68
2021/04/27 07:37:06;;;;;;;5.35;1.60;;;19.50;46.60;;;;;;4980991;28;20027;-65
2021/04/27 07:39:33;;;;;;;6.07;1.92;;;19.70;46.30;;;;;;4966111;28;20030;-71
2021/04/27 07:41:58;;;;;;;9.38;1.90;;;19.80;46.00;;;;;;4960733;28;20507;-65
2021/04/27 07:44:24;;;;;;;9.45;1.80;;;19.90;43.60;;;;;;4964673;28;20073;-71
2021/04/27 07:46:49;;;;;;;5.50;1.67;;;20.00;41.60;;;;;;4965726;28;20491;-66
2021/04/27 07:49:15;;;;;;;6.55;1.70;;;20.10;40.60;;;;;;4965322;28;20045;-66
2021/04/27 07:51:41;;;;;;;6.45;1.80;;;20.10;39.40;;;;;;4965061;28;20105;-65
2021/04/27 07:54:06;;;;;;;5.53;1.60;;;20.20;37.20;;;;;;4966294;28;20037;-69
2021/04/27 07:56:33;;;;;;;4.85;1.70;;;20.20;35.60;;;;;;4984552;28;20058;-66
2021/04/27 07:59:00;;;;;;;4.53;1.30;;;20.20;35.00;;;;;;4976187;28;20082;-68
2021/04/27 08:01:26;;;;;;;4.50;1.60;;;20.20;33.80;;;;;;4965585;28;20023;-66
2021/04/27 08:03:52;;;;;;;5.82;1.58;;;20.20;35.20;;;;;;4963963;28;20042;-68
2021/04/27 08:06:18;;;;;;;4.38;1.38;;;20.30;34.30;;;;;;4944929;28;20022;-67
2021/04/27 08:08:44;;;;;;;3.40;1.58;;;20.20;33.60;;;;;;4943260;29;20122;-69
2021/04/27 08:11:09;;;;;;;4.38;1.23;;;20.20;34.40;;;;;;4944761;28;20035;-70
2021/04/27 08:13:35;;;;;;;3.58;1.70;;;20.20;33.50;;;;;;4963211;28;20042;-68
2021/04/27 08:16:01;;;;;;;4.55;1.42;;;20.20;34.20;;;;;;4966319;28;20039;-68
2021/04/27 08:18:26;;;;;;;5.18;1.27;;;20.20;34.00;;;;;;4985497;28;20080;-69
2021/04/27 08:20:52;;;;;;;3.30;1.20;;;20.20;33.60;;;;;;4963936;28;20027;-69
2021/04/27 08:23:18;;;;;;;2.85;1.27;;;20.20;32.30;;;;;;4953752;28;20126;-69
2021/04/27 08:25:43;;;;;;;4.65;1.42;;;20.10;31.30;;;;;;4945736;28;20066;-68
2021/04/27 08:28:09;;;;;;;2.65;1.20;;;20.10;30.80;;;;;;4948952;28;20035;-66
2021/04/27 08:30:34;;;;;;;4.38;1.50;;;20.10;31.20;;;;;;4940040;28;20026;-68
2021/04/27 08:33:00;;;;;;;3.35;1.50;;;20.00;30.40;;;;;;4955839;28;20027;-68
2021/04/27 08:35:26;;;;;;;3.90;1.58;;;20.00;30.20;;;;;;4952547;28;20607;-72
2021/04/27 08:37:52;;;;;;;4.22;1.40;;;19.90;30.00;;;;;;4956297;28;20027;-67
2021/04/27 08:40:18;;;;;;;3.10;1.35;;;19.80;30.10;;;;;;4948803;28;20450;-69
2021/04/27 08:42:48;;;;;;;4.25;1.40;;;20.00;30.40;;;;;;4946163;28;20030;-70
2021/04/27 08:45:14;;;;;;;3.97;1.55;;;20.00;30.40;;;;;;4950193;28;20019;-68
2021/04/27 08:47:40;;;;;;;2.28;1.30;;;20.10;30.30;;;;;;4929204;29;20038;-68
2021/04/27 08:50:09;;;;;;;4.68;1.30;;;20.20;31.00;;;;;;4959845;28;20039;-69
2021/04/27 08:52:35;;;;;;;4.43;1.23;;;20.20;30.00;;;;;;4945815;28;20352;-67
2021/04/27 08:55:01;;;;;;;11.20;1.73;;;20.10;29.50;;;;;;4961064;28;20026;-68
2021/04/27 08:57:26;;;;;;;7.18;1.65;;;20.10;29.60;;;;;;4988016;28;20030;-70
2021/04/27 08:59:52;;;;;;;5.97;1.40;;;20.00;29.20;;;;;;4983966;28;20080;-67
2021/04/27 09:02:29;;;;;;;7.03;1.40;;;20.00;29.80;;;;;;5064954;23;20052;-67
2021/04/27 09:04:54;;;;;;;7.97;1.50;;;20.00;29.30;;;;;;5052218;28;20052;-70
2021/04/27 09:07:21;;;;;;;6.13;1.70;;;19.90;28.70;;;;;;5054258;28;20505;-67
2021/04/27 09:09:49;;;;;;;4.68;1.40;;;19.70;28.00;;;;;;5054291;28;20224;-69
2021/04/27 09:12:20;;;;;;;3.88;1.20;;;19.70;28.00;;;;;;5052332;28;20522;-69
2021/04/27 09:14:46;;;;;;;3.47;1.33;;;19.70;27.90;;;;;;5052567;28;20032;-68
2021/04/27 09:17:12;;;;;;;5.28;1.60;;;19.70;27.90;;;;;;5053537;28;20032;-70
2021/04/27 09:19:44;;;;;;;4.10;1.20;;;19.80;28.60;;;;;;5035938;28;20033;-69
2021/04/27 09:22:12;;;;;;;3.45;1.35;;;19.90;28.60;;;;;;5053915;28;20086;-69
2021/04/27 09:24:49;;;;;;;2.30;1.17;;;19.90;28.90;;;;;;5053723;28;20056;-69
2021/04/27 09:27:32;;;;;;;4.03;1.33;;;20.00;28.70;;;;;;5053909;28;20021;-69
2021/04/27 09:30:26;;;;;;;3.17;1.10;;;20.10;29.10;;;;;;5053818;28;20501;-70
2021/04/27 09:33:10;;;;;;;4.18;1.50;;;20.00;28.50;;;;;;5035884;28;20025;-67
2021/04/27 09:35:45;;;;;;;3.88;1.27;;;20.00;28.30;;;;;;5050204;28;20400;-70
2021/04/27 09:38:19;;;;;;;4.60;1.45;;;19.80;27.70;;;;;;5052494;28;20021;-69
2021/04/27 09:40:53;;;;;;;4.25;1.60;;;19.70;28.00;;;;;;5053549;28;20053;-68
2021/04/27 09:43:22;;;;;;;3.17;1.40;;;19.80;28.20;;;;;;5053714;28;20075;-69
2021/04/27 09:45:50;;;;;;;3.88;1.40;;;19.80;28.40;;;;;;5051962;28;20029;-68
2021/04/27 09:48:41;;;;;;;6.30;1.52;;;19.80;27.60;;;;;;5053195;28;20480;-68
2021/04/27 09:51:13;;;;;;;3.05;1.30;;;19.90;28.00;;;;;;5007647;28;20064;-68
2021/04/27 09:53:43;;;;;;;3.13;1.42;;;19.90;28.30;;;;;;5015690;28;20021;-68
2021/04/27 09:56:10;;;;;;;2.95;1.42;;;19.90;28.10;;;;;;5015549;28;20029;-68
2021/04/27 09:58:36;;;;;;;3.65;1.40;;;19.90;27.60;;;;;;5015704;28;20075;-67
2021/04/27 10:01:05;;;;;;;3.90;1.30;;;19.90;27.70;;;;;;5033083;28;20060;-68
2021/04/27 10:03:30;;;;;;;4.78;1.48;;;19.90;27.70;;;;;;5051220;28;20025;-68
2021/04/27 10:05:57;;;;;;;5.18;1.50;;;19.80;27.30;;;;;;5052574;28;20416;-68
2021/04/27 10:08:24;;;;;;;4.38;1.60;;;19.70;27.00;;;;;;5053179;28;20391;-68
2021/04/27 10:10:50;;;;;;;2.47;1.30;;;19.70;27.60;;;;;;5051741;28;20164;-68
2021/04/27 10:13:16;;;;;;;3.80;1.42;;;19.60;27.00;;;;;;5052776;28;20104;-68
2021/04/27 10:15:42;;;;;;;4.55;1.48;;;19.60;27.00;;;;;;5052563;28;20058;-68
2021/04/27 10:18:11;;;;;;;2.78;1.20;;;19.70;27.30;;;;;;5050771;28;20112;-68
2021/04/27 10:20:38;;;;;;;5.05;1.30;;;19.80;27.80;;;;;;5051156;28;20033;-68
2021/04/27 10:23:06;;;;;;;2.95;1.25;;;19.80;27.90;;;;;;5051563;28;20024;-68
2021/04/27 10:25:33;;;;;;;3.25;1.50;;;19.90;27.90;;;;;;5052540;28;20029;-68
2021/04/27 10:28:01;;;;;;;2.92;1.20;;;20.00;28.60;;;;;;5051480;28;20032;-68
2021/04/27 10:30:30;;;;;;;3.22;1.25;;;20.00;28.30;;;;;;5052673;28;20025;-68
2021/04/27 10:33:02;;;;;;;2.72;1.30;;;20.10;29.50;;;;;;5036102;28;20071;-68
2021/04/27 10:35:31;;;;;;;;;;;20.10;30.00;;;;;;5034875;28;20120;-68
2021/04/27 10:37:59;;;;;;;3.15;1.17;;;20.10;31.20;;;;;;5052525;28;19999;-68
2021/04/27 10:40:44;;;;;;;2.88;1.10;;;20.10;30.50;;;;;;5034615;28;20121;-68
2021/04/27 10:43:28;;;;;;;2.80;1.02;;;20.10;29.90;;;;;;5052390;28;20044;-67
2021/04/27 10:45:55;;;;;;;2.55;1.10;;;20.10;29.20;;;;;;5033726;28;20642;-67
2021/04/27 10:48:28;;;;;;;2.85;1.27;;;19.90;28.40;;;;;;5052349;28;20036;-67
2021/04/27 10:50:55;;;;;;;3.97;1.35;;;19.90;28.70;;;;;;5050926;28;20035;-68
2021/04/27 10:53:36;;;;;;;2.60;1.30;;;19.70;28.90;;;;;;5052279;28;20055;-67
2021/04/27 10:56:03;;;;;;;7.07;1.90;;;19.70;28.10;;;;;;5051959;28;20024;-70
2021/04/27 10:58:43;;;;;;;3.83;1.40;;;19.70;28.60;;;;;;5052224;28;20056;-70
2021/04/27 11:01:21;;;;;;;2.80;1.35;;;19.90;29.30;;;;;;5051577;28;20021;-68
2021/04/27 11:03:52;;;;;;;4.22;1.30;;;19.90;29.30;;;;;;5041825;28;20051;-70
2021/04/27 11:06:18;;;;;;;3.80;1.67;;;19.90;29.70;;;;;;5051826;28;20025;-68
2021/04/27 11:09:07;;;;;;;4.18;1.50;;;19.80;28.60;;;;;;5051972;28;20025;-67
2021/04/27 11:11:34;;;;;;;5.82;1.55;;;19.70;28.30;;;;;;5051317;28;20496;-67
2021/04/27 11:14:12;;;;;;;5.50;1.40;;;19.60;28.50;;;;;;5051627;28;20553;-64
2021/04/27 11:16:39;;;;;;;5.35;1.80;;;19.60;28.50;;;;;;5040984;28;20041;-68
2021/04/27 11:19:32;;;;;;;4.10;1.52;;;19.60;28.60;;;;;;5050547;28;20411;-68
2021/04/27 11:22:19;;;;;;;3.88;1.70;;;19.60;28.30;;;;;;5051630;28;20096;-67
2021/04/27 11:24:45;;;;;;;3.95;1.60;;;19.50;28.60;;;;;;5051415;28;20419;-67
2021/04/27 11:27:32;;;;;;;4.85;1.70;;;19.60;29.40;;;;;;5050565;28;20028;-68
2021/04/27 11:30:13;;;;;;;4.78;1.40;;;19.60;29.90;;;;;;5051662;28;20551;-68
2021/04/27 11:32:44;;;;;;;3.55;1.50;;;19.60;29.50;;;;;;5051028;28;20040;-69
2021/04/27 11:35:18;;;;;;;5.65;1.52;;;19.50;28.70;;;;;;5051318;28;20472;-70
2021/04/27 11:37:48;;;;;;;4.82;1.73;;;19.30;28.90;;;;;;5051629;28;20431;-70
2021/04/27 11:40:38;;;;;;;3.17;1.45;;;19.30;28.70;;;;;;5050222;28;20025;-69
2021/04/27 11:43:06;;;;;;;3.43;1.40;;;19.30;29.20;;;;;;5050322;28;20021;-68
2021/04/27 11:45:34;;;;;;;4.10;1.50;;;19.30;29.50;;;;;;5050822;28;20029;-68
2021/04/27 11:48:01;;;;;;;3.42;1.70;;;19.30;30.30;;;;;;5033744;28;20052;-68
2021/04/27 11:50:29;;;;;;;4.35;1.60;;;19.10;28.80;;;;;;5051436;28;20156;-67
2021/04/27 11:53:03;;;;;;;3.97;1.67;;;19.00;29.10;;;;;;5051259;28;20028;-67
2021/04/27 11:55:28;;;;;;;3.25;1.50;;;19.00;30.10;;;;;;5050960;28;20400;-68
2021/04/27 11:58:00;;;;;;;3.30;1.30;;;19.00;29.90;;;;;;5051429;28;20025;-67
2021/04/27 12:00:35;;;;;;;;;;;19.00;29.80;;;;;;5033544;28;20112;-67
2021/04/27 12:03:17;;;;;;;3.88;1.88;;;19.00;29.60;;;;;;5033341;28;19963;-68
2021/04/27 12:05:43;;;;;;;3.67;1.70;;;18.90;29.10;;;;;;5051090;28;20086;-68
2021/04/27 12:08:19;;;;;;;4.30;1.80;;;18.80;29.20;;;;;;5051273;28;20036;-68
2021/04/27 12:10:45;;;;;;;5.38;2.00;;;18.70;29.50;;;;;;5051264;28;20060;-70
2021/04/27 12:13:22;;;;;;;5.43;1.85;;;18.70;29.30;;;;;;5032965;28;20032;-68
2021/04/27 12:16:03;;;;;;;4.32;1.80;;;18.50;29.00;;;;;;5050334;28;20029;-68
2021/04/27 12:18:29;;;;;;;4.05;1.80;;;18.40;28.80;;;;;;5031286;28;20120;-68
2021/04/27 12:20:54;;;;;;;4.75;1.85;;;18.30;28.30;;;;;;5013417;28;20117;-68
2021/04/27 12:23:23;;;;;;;3.90;1.70;;;18.20;28.60;;;;;;5031182;28;20480;-70
2021/04/27 12:25:48;;;;;;;4.13;1.90;;;18.20;28.90;;;;;;5030849;28;20108;-68
2021/04/27 12:28:14;;;;;;;3.58;1.70;;;18.30;29.00;;;;;;5014467;28;20068;-68
2021/04/27 12:30:40;;;;;;;3.50;1.73;;;18.20;28.70;;;;;;5037943;28;20402;-68
2021/04/27 12:33:10;;;;;;;3.72;1.80;;;18.10;28.50;;;;;;5055000;28;20074;-70
2021/04/27 12:35:36;;;;;;;3.80;1.50;;;18.10;28.80;;;;;;5054561;28;20025;-69
2021/04/27 12:38:06;;;;;;;4.00;1.75;;;18.10;29.60;;;;;;5037002;28;20021;-67
2021/04/27 12:40:38;;;;;;;3.45;1.70;;;18.10;29.40;;;;;;5054716;28;20052;-70
2021/04/27 12:43:09;;;;;;;3.67;1.85;;;18.10;29.10;;;;;;5054794;28;20025;-70
2021/04/27 12:45:46;;;;;;;5.03;1.83;;;18.00;29.80;;;;;;5036111;28;20565;-69
2021/04/27 12:48:13;;;;;;;5.18;1.67;;;18.00;29.80;;;;;;5036783;28;20052;-67
2021/04/27 12:50:53;;;;;;;4.75;1.85;;;18.10;30.70;;;;;;5036644;28;20025;-68